createdAt,value
2022-08-12T00:01:08.305Z,20.90
2022-08-12T00:10:57.397Z,20.90
2022-08-12T00:14:18.041Z,20.90
2022-08-12T01:58:22.258Z,19.70
2022-08-12T02:06:21.088Z,19.50
2022-08-12T02:10:50.924Z,19.40
2022-08-12T04:36:30.603Z,19.40
2022-08-12T04:45:50.636Z,18.90
2022-08-12T05:45:01.650Z,18.60
2022-08-12T05:47:53.746Z,18.70
2022-08-12T05:50:43.502Z,18.80
2022-08-12T05:53:32.550Z,19.00
2022-08-12T05:56:24.851Z,19.40
2022-08-12T05:59:14.079Z,19.60
2022-08-12T06:24:48.707Z,21.10
2022-08-12T06:28:05.929Z,21.20
2022-08-12T06:31:24.232Z,21.40
2022-08-12T06:35:23.417Z,21.70
2022-08-12T06:37:15.059Z,22.00
2022-08-12T06:40:08.099Z,22.30
2022-08-12T06:42:56.295Z,22.50
2022-08-12T06:45:49.610Z,22.50
2022-08-12T06:48:38.879Z,22.50
2022-08-12T06:51:29.709Z,22.50
2022-08-12T06:54:27.096Z,22.50
2022-08-12T06:58:08.149Z,22.50
2022-08-12T07:01:00.397Z,22.70
2022-08-12T07:03:51.316Z,22.70
2022-08-12T07:06:45.878Z,22.90
2022-08-12T07:13:02.915Z,23.00
2022-08-12T07:15:57.142Z,23.00
2022-08-12T07:18:50.456Z,23.00
2022-08-12T07:22:00.306Z,23.10
2022-08-12T07:25:08.681Z,23.10
2022-08-12T07:27:58.536Z,23.10
2022-08-12T07:30:50.999Z,23.10
2022-08-12T07:33:44.119Z,23.20
2022-08-12T07:36:33.934Z,23.30
2022-08-12T07:39:22.798Z,23.30
2022-08-12T07:42:11.682Z,23.40
2022-08-12T07:45:00.741Z,23.50
2022-08-12T07:47:53.087Z,23.50
2022-08-12T07:50:41.912Z,23.60
2022-08-12T07:53:31.085Z,23.60
2022-08-12T07:56:20.338Z,23.60
2022-08-12T07:59:10.775Z,23.80
2022-08-12T08:02:02.367Z,24.00
2022-08-12T08:05:00.708Z,24.00
2022-08-12T08:07:49.662Z,24.00
2022-08-12T08:10:39.415Z,23.90
2022-08-12T08:13:28.718Z,23.80
2022-08-12T08:16:17.471Z,23.80
2022-08-12T08:19:23.678Z,23.80
2022-08-12T08:22:13.844Z,23.90
2022-08-12T08:25:02.608Z,24.10
2022-08-12T08:27:51.368Z,24.30
2022-08-12T08:30:42.789Z,24.50
2022-08-12T08:34:09.533Z,24.50
2022-08-12T08:36:42.373Z,24.60
2022-08-12T08:39:32.583Z,24.70
2022-08-12T08:42:40.549Z,24.70
2022-08-12T08:45:29.401Z,24.60
2022-08-12T08:48:18.581Z,24.80
2022-08-12T08:51:07.715Z,25.00
2022-08-12T08:53:56.810Z,25.00
2022-08-12T08:56:50.214Z,25.20
2022-08-12T08:59:39.057Z,25.40
2022-08-12T09:02:27.728Z,25.70
2022-08-12T09:05:25.416Z,25.30
2022-08-12T09:08:20.850Z,25.10
2022-08-12T09:12:07.351Z,25.10
2022-08-12T09:14:51.174Z,25.00
2022-08-12T09:20:50.969Z,25.20
2022-08-12T09:23:59.413Z,25.20
2022-08-12T09:26:49.022Z,25.50
2022-08-12T09:30:09.952Z,25.70
2022-08-12T09:33:04.331Z,25.70
2022-08-12T09:36:04.384Z,25.80
2022-08-12T09:38:58.769Z,25.70
2022-08-12T09:42:38.835Z,25.50
2022-08-12T09:45:24.068Z,25.70
2022-08-12T09:48:35.085Z,25.60
2022-08-12T09:51:24.766Z,25.50
2022-08-12T09:54:32.842Z,25.60
2022-08-12T09:58:51.079Z,25.70
2022-08-12T10:00:43.195Z,25.60
2022-08-12T10:04:03.681Z,25.70
2022-08-12T10:06:54.857Z,25.90
2022-08-12T10:09:58.715Z,26.10
2022-08-12T10:13:10.099Z,25.90
2022-08-12T10:16:06.401Z,25.90
2022-08-12T10:18:58.209Z,26.10
2022-08-12T10:21:47.440Z,26.10
2022-08-12T10:25:17.467Z,26.00
2022-08-12T10:28:25.461Z,26.40
2022-08-12T10:31:16.409Z,26.50
2022-08-12T10:34:23.343Z,26.40
2022-08-12T10:38:32.297Z,26.40
2022-08-12T10:40:31.638Z,26.30
2022-08-12T10:43:56.370Z,26.30
2022-08-12T10:46:49.622Z,26.40
2022-08-12T10:50:03.045Z,26.40
2022-08-12T10:52:49.732Z,26.40
2022-08-12T10:55:42.472Z,26.50
2022-08-12T10:58:34.691Z,26.40
2022-08-12T11:01:49.388Z,26.30
2022-08-12T11:04:45.658Z,26.50
2022-08-12T11:08:34.274Z,26.50
2022-08-12T11:10:48.221Z,26.60
2022-08-12T11:13:46.718Z,26.70
2022-08-12T11:16:38.382Z,26.80
2022-08-12T11:19:27.498Z,26.60
2022-08-12T11:22:24.246Z,26.70
2022-08-12T11:25:14.470Z,26.70
2022-08-12T11:28:04.309Z,26.60
2022-08-12T11:30:54.948Z,26.60
2022-08-12T11:34:05.475Z,26.60
2022-08-12T11:36:54.124Z,26.50
2022-08-12T11:40:03.141Z,26.70
2022-08-12T11:42:53.110Z,26.60
2022-08-12T11:45:47.221Z,26.70
2022-08-12T11:48:52.341Z,26.80
2022-08-12T11:51:41.607Z,26.70
2022-08-12T11:54:31.127Z,26.60
2022-08-12T11:58:09.485Z,26.60
2022-08-12T12:03:43.683Z,26.90
2022-08-12T12:06:35.298Z,27.00
2022-08-12T12:09:26.831Z,26.80
2022-08-12T12:12:16.208Z,27.00
2022-08-12T12:15:07.111Z,27.10
2022-08-12T12:17:59.808Z,27.20
2022-08-12T12:20:48.708Z,27.30
2022-08-12T12:23:38.109Z,27.50
2022-08-12T12:26:35.625Z,27.80
2022-08-12T12:30:18.437Z,28.50
2022-08-12T12:32:38.050Z,29.00
2022-08-12T12:36:18.238Z,29.00
2022-08-12T12:38:37.570Z,29.10
2022-08-12T12:42:41.501Z,29.30
2022-08-12T12:44:42.032Z,29.00
2022-08-12T12:47:52.921Z,28.50
2022-08-12T12:50:51.724Z,28.30
2022-08-12T12:54:08.396Z,28.20
2022-08-12T12:56:54.548Z,28.90
2022-08-12T13:00:03.733Z,29.70
2022-08-12T13:02:55.533Z,29.50
2022-08-12T13:05:45.713Z,29.20
2022-08-12T13:08:43.352Z,29.20
2022-08-12T13:11:41.506Z,29.60
2022-08-12T13:14:35.209Z,29.50
2022-08-12T13:18:03.288Z,29.20
2022-08-12T13:20:43.060Z,28.80
2022-08-12T13:23:36.046Z,28.50
2022-08-12T13:26:26.243Z,28.40
2022-08-12T13:29:16.098Z,28.40
2022-08-12T13:32:30.804Z,28.50
2022-08-12T13:35:20.012Z,28.50
2022-08-12T13:38:34.673Z,28.50
2022-08-12T13:41:35.746Z,29.10
2022-08-12T13:44:26.368Z,29.20
2022-08-12T13:47:19.671Z,29.20
2022-08-12T13:50:10.690Z,28.80
2022-08-12T13:53:00.259Z,28.80
2022-08-12T13:55:59.710Z,28.80
2022-08-12T13:58:52.691Z,28.60
2022-08-12T14:01:41.561Z,28.60
2022-08-12T14:04:30.298Z,28.70
2022-08-12T14:07:19.234Z,28.50
2022-08-12T14:10:29.252Z,28.60
2022-08-12T14:14:06.127Z,28.70
2022-08-12T14:16:37.557Z,28.80
2022-08-12T14:19:48.669Z,29.00
2022-08-12T14:22:49.397Z,29.00
2022-08-12T14:25:40.736Z,28.90
2022-08-12T14:28:32.497Z,28.60
2022-08-12T14:31:27.945Z,28.40
2022-08-12T14:34:28.282Z,28.40
2022-08-12T14:37:55.899Z,28.30
2022-08-12T14:40:28.162Z,28.40
2022-08-12T14:43:17.541Z,28.60
2022-08-12T14:46:07.850Z,28.60
2022-08-12T14:48:57.207Z,28.60
2022-08-12T14:53:15.353Z,28.50
2022-08-12T14:58:05.603Z,28.40
2022-08-12T15:01:13.089Z,28.50
2022-08-12T15:04:02.335Z,28.40
2022-08-12T15:06:53.108Z,28.00
2022-08-12T15:09:41.923Z,27.90
2022-08-12T15:12:32.661Z,28.10
2022-08-12T15:15:22.695Z,28.10
2022-08-12T15:18:12.237Z,28.20
2022-08-12T15:21:06.189Z,28.40
2022-08-12T15:24:03.362Z,28.50
2022-08-12T15:26:58.493Z,28.60
2022-08-12T15:29:47.714Z,28.20
2022-08-12T15:32:41.243Z,28.10
2022-08-12T15:35:52.922Z,28.00
2022-08-12T15:38:43.069Z,27.90
2022-08-12T15:41:49.567Z,27.90
2022-08-12T15:44:42.374Z,27.80
2022-08-12T15:47:43.094Z,28.00
2022-08-12T15:50:39.956Z,28.00
2022-08-12T15:53:57.395Z,28.10
2022-08-12T15:56:49.193Z,28.10
2022-08-12T16:00:00.730Z,27.90
2022-08-12T16:02:50.623Z,27.60
2022-08-12T16:06:15.639Z,27.60
2022-08-12T16:08:51.665Z,27.70
2022-08-12T16:11:41.242Z,27.70
2022-08-12T16:14:34.156Z,27.60
2022-08-12T16:17:25.962Z,27.40
2022-08-12T16:20:33.327Z,27.30
2022-08-12T16:23:35.949Z,27.30
2022-08-12T16:26:35.086Z,27.20
2022-08-12T16:29:52.050Z,27.00
2022-08-12T16:32:46.391Z,26.70
2022-08-12T16:35:44.111Z,26.50
2022-08-12T16:38:35.855Z,26.40
2022-08-12T16:41:25.723Z,26.40
2022-08-12T16:44:19.615Z,26.60
2022-08-12T16:47:08.417Z,26.60
2022-08-12T16:49:58.912Z,26.70
2022-08-12T16:52:49.466Z,26.90
2022-08-12T16:55:42.257Z,26.90
2022-08-12T16:58:31.500Z,26.80
2022-08-12T17:01:20.366Z,26.70
2022-08-12T17:04:09.530Z,26.70
2022-08-12T17:06:59.694Z,26.70
2022-08-12T17:09:50.823Z,26.60
2022-08-12T17:12:39.711Z,26.60
2022-08-12T17:15:57.789Z,26.50
2022-08-12T17:18:43.881Z,26.30
2022-08-12T17:22:01.913Z,26.30
2022-08-12T17:24:55.987Z,26.30
2022-08-12T17:27:55.030Z,26.30
2022-08-12T17:30:51.219Z,26.20
2022-08-12T17:33:55.080Z,26.10
2022-08-12T17:36:44.209Z,26.00
2022-08-12T17:40:12.698Z,25.90
2022-08-12T17:42:48.211Z,25.90
2022-08-12T17:45:38.038Z,25.80
2022-08-12T17:48:35.060Z,25.80
2022-08-12T17:51:31.433Z,25.70
2022-08-12T17:54:21.480Z,25.70
2022-08-12T17:57:16.314Z,25.70
2022-08-12T18:00:12.802Z,25.60
2022-08-12T18:03:03.452Z,25.50
2022-08-12T18:05:59.060Z,25.50
2022-08-12T18:08:54.947Z,25.50
2022-08-12T18:12:08.492Z,25.40
2022-08-12T18:14:58.591Z,25.30
2022-08-12T18:17:49.506Z,25.30
2022-08-12T18:20:50.232Z,25.20
2022-08-12T18:23:50.800Z,25.10
2022-08-12T18:26:53.152Z,25.00
2022-08-12T18:29:43.217Z,24.90
2022-08-12T18:32:53.629Z,24.70
2022-08-12T18:35:53.362Z,24.60
2022-08-12T18:38:44.895Z,24.40
2022-08-12T18:41:40.463Z,24.20
2022-08-12T18:44:29.586Z,24.10
2022-08-12T18:47:20.883Z,23.90
2022-08-12T18:50:10.977Z,23.80
2022-08-12T18:53:02.429Z,23.60
2022-08-12T18:55:59.165Z,23.40
2022-08-12T18:58:59.446Z,23.40
2022-08-12T19:02:22.023Z,23.20
2022-08-12T19:05:09.470Z,23.10
2022-08-12T19:08:01.002Z,22.90
2022-08-12T19:10:55.570Z,22.90
2022-08-12T19:14:03.248Z,22.70
2022-08-12T19:16:52.619Z,22.60
2022-08-12T19:19:43.392Z,22.50
2022-08-12T19:22:32.564Z,22.40
2022-08-12T19:26:00.864Z,22.30
2022-08-12T19:28:38.478Z,22.20
2022-08-12T19:31:56.661Z,22.10
2022-08-12T19:36:06.451Z,22.00
2022-08-12T19:38:04.336Z,22.00
2022-08-12T19:40:58.761Z,21.90
2022-08-12T19:44:00.469Z,21.90
2022-08-12T19:47:02.621Z,21.90
2022-08-12T19:49:55.107Z,21.80
2022-08-12T19:52:44.299Z,21.70
2022-08-12T19:55:39.093Z,21.80
2022-08-12T19:58:27.872Z,21.70
2022-08-12T20:01:18.840Z,21.60
2022-08-12T20:04:09.141Z,21.60
2022-08-12T20:07:00.098Z,21.50
2022-08-12T20:09:55.779Z,21.50
2022-08-12T20:13:17.720Z,21.50
2022-08-12T20:15:59.530Z,21.40
2022-08-12T20:18:57.979Z,21.40
2022-08-12T20:21:49.649Z,21.30
2022-08-12T20:24:48.540Z,21.30
2022-08-12T20:28:05.187Z,21.30
2022-08-12T20:30:59.806Z,21.30
2022-08-12T20:33:58.000Z,21.30
2022-08-12T20:36:46.296Z,21.20
2022-08-12T20:39:56.586Z,21.20
2022-08-12T20:42:50.594Z,21.10
2022-08-12T20:45:44.990Z,21.10
2022-08-12T20:48:55.342Z,21.10
2022-08-12T20:52:01.772Z,21.00
2022-08-12T20:55:00.108Z,20.90
2022-08-12T20:58:03.027Z,20.70
2022-08-12T21:00:55.956Z,20.70
2022-08-12T21:04:18.677Z,20.70
2022-08-12T21:07:23.618Z,20.80
2022-08-12T21:10:26.537Z,21.00
2022-08-12T21:13:39.276Z,21.00
2022-08-12T21:16:42.073Z,21.00
2022-08-12T21:19:52.926Z,21.00
2022-08-12T21:22:52.935Z,20.90
2022-08-12T21:25:52.706Z,20.90
2022-08-12T21:28:42.346Z,20.80
2022-08-12T21:32:39.365Z,20.80
2022-08-12T21:38:34.286Z,21.10
2022-08-12T21:41:35.630Z,21.10
2022-08-12T21:45:43.877Z,20.90
2022-08-12T21:47:37.294Z,20.80
2022-08-12T21:54:07.235Z,20.70
2022-08-12T22:10:12.520Z,20.00
2022-08-12T22:14:07.857Z,19.80
2022-08-12T22:23:51.294Z,19.80
2022-08-12T22:52:00.208Z,19.30
2022-08-12T23:11:40.519Z,20.00
2022-08-12T23:24:12.389Z,20.10
2022-08-12T23:40:17.921Z,19.90
2022-08-12T23:44:12.213Z,20.00
2022-08-12T23:47:30.099Z,20.00
2022-08-12T23:58:23.168Z,20.50
